createdAt,value
2018-12-31T00:00:23.943Z,7.04
2018-12-31T00:01:58.421Z,7.04
2018-12-31T00:03:04.070Z,6.93
2018-12-31T00:04:09.962Z,6.93
2018-12-31T00:05:15.896Z,6.97
2018-12-31T00:06:21.793Z,6.99
2018-12-31T00:07:27.730Z,7.12
2018-12-31T00:08:33.643Z,7.27
2018-12-31T00:09:39.581Z,7.47
2018-12-31T00:10:45.690Z,7.53
2018-12-31T00:11:51.606Z,7.42
2018-12-31T00:12:57.508Z,7.35
2018-12-31T00:14:03.411Z,7.21
2018-12-31T00:15:09.296Z,7.14
2018-12-31T00:16:15.773Z,6.99
2018-12-31T00:17:21.710Z,6.94
2018-12-31T00:18:27.608Z,6.90
2018-12-31T00:19:33.488Z,7.13
2018-12-31T00:20:39.431Z,7.10
2018-12-31T00:21:45.325Z,7.14
2018-12-31T00:22:51.222Z,7.34
2018-12-31T00:23:57.118Z,7.25
2018-12-31T00:25:03.024Z,7.15
2018-12-31T00:26:08.896Z,6.90
2018-12-31T00:27:14.804Z,6.80
2018-12-31T00:28:20.694Z,6.84
2018-12-31T00:29:26.597Z,6.98
2018-12-31T00:30:32.157Z,6.88
2018-12-31T00:31:37.734Z,6.81
2018-12-31T00:32:43.661Z,6.77
2018-12-31T00:33:49.605Z,6.75
2018-12-31T00:34:55.587Z,6.77
2018-12-31T00:36:01.534Z,6.80
2018-12-31T00:37:07.473Z,6.99
2018-12-31T00:38:13.390Z,6.93
2018-12-31T00:39:19.283Z,6.95
2018-12-31T00:40:25.194Z,6.99
2018-12-31T00:41:31.137Z,7.07
2018-12-31T00:42:37.058Z,7.08
2018-12-31T00:43:42.973Z,7.15
2018-12-31T00:44:48.868Z,7.11
2018-12-31T00:45:54.785Z,7.03
2018-12-31T00:47:00.693Z,6.98
2018-12-31T00:48:06.597Z,6.86
2018-12-31T00:49:12.485Z,6.98
2018-12-31T00:50:19.091Z,7.09
2018-12-31T00:51:24.953Z,7.21
2018-12-31T00:52:30.876Z,7.35
2018-12-31T00:53:36.782Z,7.24
2018-12-31T00:54:42.673Z,7.11
2018-12-31T00:55:48.562Z,7.07
2018-12-31T00:56:54.466Z,6.96
2018-12-31T00:58:00.387Z,6.92
2018-12-31T00:59:06.290Z,7.04
2018-12-31T01:00:12.186Z,7.06
2018-12-31T01:01:18.067Z,7.08
2018-12-31T01:02:25.741Z,7.16
2018-12-31T01:03:29.989Z,7.22
2018-12-31T01:04:35.679Z,7.25
2018-12-31T01:05:41.194Z,7.11
2018-12-31T01:06:47.085Z,6.91
2018-12-31T01:07:52.779Z,7.03
2018-12-31T01:08:58.739Z,7.27
2018-12-31T01:10:03.977Z,7.21
2018-12-31T01:11:09.869Z,7.18
2018-12-31T01:12:15.781Z,7.04
2018-12-31T01:13:21.684Z,6.92
2018-12-31T01:14:27.549Z,7.05
2018-12-31T01:15:33.420Z,7.07
2018-12-31T01:16:39.356Z,7.06
2018-12-31T01:17:45.305Z,7.08
2018-12-31T01:18:51.312Z,6.87
2018-12-31T01:19:57.236Z,6.92
2018-12-31T01:21:03.103Z,7.06
2018-12-31T01:22:08.982Z,7.16
2018-12-31T01:23:14.905Z,7.12
2018-12-31T01:24:20.830Z,7.28
2018-12-31T01:25:26.708Z,7.36
2018-12-31T01:26:32.648Z,7.16
2018-12-31T01:27:38.569Z,7.20
2018-12-31T01:28:44.475Z,7.14
2018-12-31T01:29:50.399Z,7.16
2018-12-31T01:30:56.356Z,7.29
2018-12-31T01:32:02.277Z,7.22
2018-12-31T01:33:08.211Z,7.36
2018-12-31T01:34:14.083Z,7.50
2018-12-31T01:35:19.963Z,7.51
2018-12-31T01:36:25.833Z,7.24
2018-12-31T01:37:31.711Z,7.14
2018-12-31T01:38:37.647Z,7.15
2018-12-31T01:39:43.549Z,7.07
2018-12-31T01:40:49.426Z,7.36
2018-12-31T01:41:54.977Z,7.33
2018-12-31T01:43:00.919Z,7.19
2018-12-31T01:44:07.029Z,7.04
2018-12-31T01:45:14.269Z,7.02
2018-12-31T01:46:19.807Z,7.01
2018-12-31T01:47:25.920Z,6.96
2018-12-31T01:48:33.718Z,7.22
2018-12-31T01:49:41.841Z,7.42
2018-12-31T01:50:48.736Z,7.43
2018-12-31T01:51:55.553Z,7.47
2018-12-31T01:53:01.472Z,7.51
2018-12-31T01:54:09.954Z,7.59
2018-12-31T01:55:16.059Z,7.62
2018-12-31T01:56:21.962Z,7.52
2018-12-31T01:57:27.912Z,7.42
2018-12-31T01:58:33.817Z,7.29
2018-12-31T01:59:39.715Z,7.19
2018-12-31T02:00:45.585Z,7.10
2018-12-31T02:01:50.453Z,7.11
2018-12-31T02:02:55.369Z,7.00
2018-12-31T02:04:01.453Z,6.88
2018-12-31T02:05:07.392Z,6.78
2018-12-31T02:06:13.276Z,6.76
2018-12-31T02:07:19.193Z,6.69
2018-12-31T02:08:25.132Z,6.73
2018-12-31T02:09:31.070Z,6.69
2018-12-31T02:10:36.626Z,6.77
2018-12-31T02:11:42.545Z,6.69
2018-12-31T02:12:48.494Z,6.72
2018-12-31T02:13:54.440Z,6.69
2018-12-31T02:15:00.329Z,6.73
2018-12-31T02:16:05.933Z,6.96
2018-12-31T02:17:11.908Z,6.85
2018-12-31T02:18:17.812Z,6.78
2018-12-31T02:19:23.812Z,6.76
2018-12-31T02:20:29.403Z,6.90
2018-12-31T02:21:35.312Z,6.91
2018-12-31T02:22:41.219Z,6.97
2018-12-31T02:23:47.201Z,6.90
2018-12-31T02:24:53.102Z,7.06
2018-12-31T02:25:59.031Z,6.94
2018-12-31T02:27:04.604Z,7.16
2018-12-31T02:28:10.610Z,7.22
2018-12-31T02:29:16.498Z,7.00
2018-12-31T02:30:22.383Z,7.03
2018-12-31T02:31:28.297Z,6.85
2018-12-31T02:32:34.190Z,6.71
2018-12-31T02:33:40.143Z,6.66
2018-12-31T02:34:46.076Z,6.78
2018-12-31T02:35:52.133Z,6.86
2018-12-31T02:36:58.033Z,6.80
2018-12-31T02:38:03.933Z,6.62
2018-12-31T02:39:09.854Z,6.71
2018-12-31T02:40:15.817Z,6.61
2018-12-31T02:41:21.712Z,6.54
2018-12-31T02:42:27.637Z,6.56
2018-12-31T02:43:33.614Z,6.61
2018-12-31T02:44:39.549Z,6.61
2018-12-31T02:45:45.449Z,6.62
2018-12-31T02:46:51.324Z,6.62
2018-12-31T02:47:57.252Z,6.62
2018-12-31T02:49:03.207Z,6.90
2018-12-31T02:50:09.133Z,6.82
2018-12-31T02:51:15.014Z,6.66
2018-12-31T02:52:20.921Z,6.67
2018-12-31T02:53:26.845Z,6.95
2018-12-31T02:54:32.748Z,7.04
2018-12-31T02:55:38.670Z,6.72
2018-12-31T02:56:44.605Z,6.72
2018-12-31T02:57:50.513Z,6.74
2018-12-31T02:58:56.423Z,6.84
2018-12-31T03:00:02.314Z,6.70
2018-12-31T03:01:09.146Z,6.69
2018-12-31T03:02:15.034Z,6.75
2018-12-31T03:03:20.941Z,6.92
2018-12-31T03:04:26.871Z,6.95
2018-12-31T03:05:32.792Z,6.96
2018-12-31T03:06:38.721Z,6.87
2018-12-31T03:07:44.647Z,6.80
2018-12-31T03:08:50.581Z,6.81
2018-12-31T03:09:56.512Z,6.88
2018-12-31T03:11:02.489Z,6.82
2018-12-31T03:12:08.047Z,6.78
2018-12-31T03:13:13.967Z,6.84
2018-12-31T03:14:19.891Z,6.90
2018-12-31T03:15:25.812Z,6.89
2018-12-31T03:16:31.838Z,6.94
2018-12-31T03:17:37.789Z,6.78
2018-12-31T03:18:43.698Z,6.89
2018-12-31T03:19:49.661Z,7.03
2018-12-31T03:20:55.576Z,6.85
2018-12-31T03:22:01.466Z,6.76
2018-12-31T03:23:07.366Z,6.60
2018-12-31T03:24:13.312Z,6.72
2018-12-31T03:25:19.221Z,6.74
2018-12-31T03:26:25.177Z,6.70
2018-12-31T03:27:31.107Z,6.83
2018-12-31T03:28:36.998Z,7.03
2018-12-31T03:29:42.960Z,7.02
2018-12-31T03:30:48.887Z,6.89
2018-12-31T03:31:54.834Z,6.98
2018-12-31T03:33:00.737Z,6.77
2018-12-31T03:34:06.686Z,6.73
2018-12-31T03:35:12.614Z,6.66
2018-12-31T03:36:18.546Z,6.62
2018-12-31T03:37:24.429Z,6.73
2018-12-31T03:38:30.335Z,6.68
2018-12-31T03:39:36.266Z,6.61
2018-12-31T03:40:42.140Z,6.72
2018-12-31T03:41:48.093Z,6.69
2018-12-31T03:42:53.984Z,6.64
2018-12-31T03:43:59.869Z,6.67
2018-12-31T03:45:05.121Z,6.64
2018-12-31T03:46:11.061Z,6.51
2018-12-31T03:47:16.944Z,6.49
2018-12-31T03:48:22.814Z,6.54
2018-12-31T03:49:28.705Z,6.55
2018-12-31T03:50:34.607Z,6.77
2018-12-31T03:51:40.540Z,6.79
2018-12-31T03:52:46.452Z,6.68
2018-12-31T03:53:52.353Z,6.58
2018-12-31T03:54:58.280Z,6.47
2018-12-31T03:56:04.183Z,6.42
2018-12-31T03:57:10.180Z,6.46
2018-12-31T03:58:16.122Z,6.58
2018-12-31T03:59:22.058Z,6.52
2018-12-31T04:00:28.001Z,6.50
2018-12-31T04:01:33.901Z,6.51
2018-12-31T04:02:39.788Z,6.66
2018-12-31T04:03:45.669Z,6.77
2018-12-31T04:04:51.586Z,6.65
2018-12-31T04:05:57.502Z,6.55
2018-12-31T04:07:03.446Z,6.49
2018-12-31T04:08:09.397Z,6.46
2018-12-31T04:09:15.353Z,6.46
2018-12-31T04:10:20.981Z,6.64
2018-12-31T04:11:26.909Z,6.59
2018-12-31T04:12:32.873Z,6.58
2018-12-31T04:13:38.765Z,6.53
2018-12-31T04:14:44.710Z,6.71
2018-12-31T04:15:50.606Z,6.82
2018-12-31T04:16:56.573Z,6.84
2018-12-31T04:18:02.498Z,6.71
2018-12-31T04:19:08.534Z,6.64
2018-12-31T04:20:14.413Z,6.54
2018-12-31T04:21:20.337Z,6.50
2018-12-31T04:22:26.282Z,6.49
2018-12-31T04:23:32.221Z,6.53
2018-12-31T04:24:38.184Z,6.75
2018-12-31T04:25:44.185Z,6.80
2018-12-31T04:26:50.102Z,6.98
2018-12-31T04:27:56.038Z,7.23
2018-12-31T04:29:02.078Z,7.13
2018-12-31T04:30:07.717Z,7.02
2018-12-31T04:31:13.628Z,6.93
2018-12-31T04:32:19.524Z,6.97
2018-12-31T04:33:25.474Z,6.90
2018-12-31T04:34:31.405Z,6.67
2018-12-31T04:35:37.336Z,6.59
2018-12-31T04:36:43.233Z,6.55
2018-12-31T04:37:49.188Z,6.72
2018-12-31T04:38:55.094Z,6.62
2018-12-31T04:40:01.039Z,6.53
2018-12-31T04:41:07.024Z,6.54
2018-12-31T04:42:12.949Z,6.54
2018-12-31T04:43:18.859Z,6.50
2018-12-31T04:44:24.760Z,6.66
2018-12-31T04:45:30.692Z,6.64
2018-12-31T04:46:36.567Z,6.62
2018-12-31T04:47:42.490Z,6.54
2018-12-31T04:48:48.362Z,6.64
2018-12-31T04:49:54.268Z,6.56
2018-12-31T04:51:00.181Z,6.60
2018-12-31T04:52:05.766Z,6.59
2018-12-31T04:53:11.680Z,6.39
2018-12-31T04:54:17.624Z,6.39
2018-12-31T04:55:23.534Z,6.61
2018-12-31T04:56:29.439Z,6.69
2018-12-31T04:57:35.308Z,6.61
2018-12-31T04:58:41.226Z,6.52
2018-12-31T04:59:47.143Z,6.52
2018-12-31T05:00:53.144Z,6.40
2018-12-31T05:01:59.075Z,6.54
2018-12-31T05:03:04.970Z,6.53
2018-12-31T05:04:10.854Z,6.60
2018-12-31T05:05:16.760Z,6.71
2018-12-31T05:06:22.655Z,6.68
2018-12-31T05:07:28.557Z,6.71
2018-12-31T05:08:34.463Z,6.80
2018-12-31T05:09:40.390Z,6.82
2018-12-31T05:10:46.355Z,6.67
2018-12-31T05:11:52.269Z,6.69
2018-12-31T05:12:58.207Z,6.59
2018-12-31T05:14:04.147Z,6.75
2018-12-31T05:15:10.081Z,6.78
2018-12-31T05:16:15.965Z,6.94
2018-12-31T05:17:21.892Z,6.93
2018-12-31T05:18:27.804Z,6.87
2018-12-31T05:19:33.700Z,6.86
2018-12-31T05:20:39.634Z,6.62
2018-12-31T05:21:45.541Z,6.80
2018-12-31T05:22:51.501Z,6.82
2018-12-31T05:23:57.456Z,6.68
2018-12-31T05:25:03.027Z,6.51
2018-12-31T05:26:09.077Z,6.62
2018-12-31T05:27:14.955Z,6.81
2018-12-31T05:28:20.904Z,6.96
2018-12-31T05:29:26.787Z,6.94
2018-12-31T05:30:32.697Z,6.92
2018-12-31T05:31:38.577Z,6.84
2018-12-31T05:32:44.512Z,6.71
2018-12-31T05:33:50.445Z,6.74
2018-12-31T05:34:56.656Z,6.77
2018-12-31T05:36:03.230Z,6.70
2018-12-31T05:37:11.222Z,6.56
2018-12-31T05:38:17.130Z,6.69
2018-12-31T05:39:23.001Z,6.65
2018-12-31T05:40:30.121Z,6.54
2018-12-31T05:41:36.170Z,6.52
2018-12-31T05:42:42.062Z,6.53
2018-12-31T05:43:48.001Z,6.56
2018-12-31T05:44:53.952Z,6.67
2018-12-31T05:45:59.843Z,6.76
2018-12-31T05:47:05.756Z,6.70
2018-12-31T05:48:11.668Z,6.52
2018-12-31T05:49:17.592Z,6.56
2018-12-31T05:50:23.513Z,6.66
2018-12-31T05:51:29.459Z,6.67
2018-12-31T05:52:35.372Z,6.57
2018-12-31T05:53:41.269Z,6.51
2018-12-31T05:54:47.149Z,6.64
2018-12-31T05:55:53.206Z,6.82
2018-12-31T05:56:59.255Z,6.80
2018-12-31T05:58:04.283Z,6.81
2018-12-31T05:59:10.257Z,6.65
2018-12-31T06:00:15.131Z,6.53
2018-12-31T06:01:20.046Z,6.44
2018-12-31T06:02:24.978Z,6.49
2018-12-31T06:03:30.376Z,6.65
2018-12-31T06:04:36.566Z,6.77
2018-12-31T06:05:42.423Z,6.80
2018-12-31T06:06:48.291Z,6.78
2018-12-31T06:07:53.954Z,6.70
2018-12-31T06:09:00.273Z,6.77
2018-12-31T06:10:05.765Z,6.73
2018-12-31T06:11:11.639Z,6.66
2018-12-31T06:12:18.654Z,6.55
2018-12-31T06:13:25.056Z,6.63
2018-12-31T06:14:30.973Z,6.48
2018-12-31T06:15:36.860Z,6.49
2018-12-31T06:16:42.777Z,6.53
2018-12-31T06:17:49.051Z,6.61
2018-12-31T06:18:56.110Z,6.77
2018-12-31T06:20:03.142Z,6.81
2018-12-31T06:21:10.153Z,6.64
2018-12-31T06:22:18.074Z,6.52
2018-12-31T06:23:26.257Z,6.43
2018-12-31T06:24:33.397Z,6.39
2018-12-31T06:25:40.255Z,6.57
2018-12-31T06:26:46.510Z,6.53
2018-12-31T06:27:52.425Z,6.44
2018-12-31T06:28:59.141Z,6.48
2018-12-31T06:30:06.621Z,6.49
2018-12-31T06:31:13.607Z,6.39
2018-12-31T06:32:20.543Z,6.44
2018-12-31T06:33:27.473Z,6.43
2018-12-31T06:34:35.825Z,6.42
2018-12-31T06:35:44.822Z,6.34
2018-12-31T06:36:53.949Z,6.33
2018-12-31T06:38:03.335Z,6.21
2018-12-31T06:39:10.509Z,6.22
2018-12-31T06:40:18.082Z,6.18
2018-12-31T06:41:23.727Z,6.18
2018-12-31T06:42:30.456Z,6.12
2018-12-31T06:43:38.399Z,6.10
2018-12-31T06:44:45.231Z,6.32
2018-12-31T06:45:53.071Z,6.37
2018-12-31T06:47:00.792Z,6.28
2018-12-31T06:48:08.610Z,6.21
2018-12-31T06:49:17.392Z,6.12
2018-12-31T06:50:25.209Z,6.11
2018-12-31T06:51:34.817Z,6.13
2018-12-31T06:52:42.969Z,6.19
2018-12-31T06:53:49.355Z,6.15
2018-12-31T06:54:56.348Z,6.16
2018-12-31T06:56:03.636Z,6.15
2018-12-31T06:57:10.670Z,6.22
2018-12-31T06:58:18.081Z,6.32
2018-12-31T06:59:25.218Z,6.31
2018-12-31T07:00:33.720Z,6.29
2018-12-31T07:01:41.668Z,6.27
2018-12-31T07:02:48.405Z,6.24
2018-12-31T07:03:55.276Z,6.20
2018-12-31T07:05:02.186Z,6.19
2018-12-31T07:06:09.809Z,6.18
2018-12-31T07:07:16.915Z,6.18
2018-12-31T07:08:23.337Z,6.19
2018-12-31T07:09:30.286Z,6.19
2018-12-31T07:10:37.130Z,6.27
2018-12-31T07:11:44.058Z,6.31
2018-12-31T07:12:51.056Z,6.35
2018-12-31T07:13:58.012Z,6.50
2018-12-31T07:15:04.549Z,6.56
2018-12-31T07:16:11.404Z,6.60
2018-12-31T07:17:18.374Z,6.73
2018-12-31T07:18:25.116Z,6.75
2018-12-31T07:19:32.718Z,6.79
2018-12-31T07:20:39.455Z,6.98
2018-12-31T07:21:46.260Z,7.09
2018-12-31T07:22:53.349Z,7.04
2018-12-31T07:24:00.652Z,6.95
2018-12-31T07:25:07.656Z,7.19
2018-12-31T07:26:16.007Z,7.15
2018-12-31T07:27:22.992Z,7.11
2018-12-31T07:28:29.757Z,7.14
2018-12-31T07:29:38.138Z,6.93
2018-12-31T07:30:45.143Z,6.73
2018-12-31T07:31:52.544Z,6.68
2018-12-31T07:32:59.880Z,6.74
2018-12-31T07:34:06.413Z,6.62
2018-12-31T07:35:13.565Z,6.61
2018-12-31T07:36:20.485Z,6.52
2018-12-31T07:37:28.299Z,6.48
2018-12-31T07:38:36.008Z,6.46
2018-12-31T07:39:42.686Z,6.60
2018-12-31T07:40:49.979Z,6.61
2018-12-31T07:41:58.650Z,6.67
2018-12-31T07:43:04.755Z,6.63
2018-12-31T07:44:12.018Z,6.66
2018-12-31T07:45:18.835Z,6.58
2018-12-31T07:46:26.949Z,6.52
2018-12-31T07:47:35.951Z,6.56
2018-12-31T07:48:44.269Z,6.77
2018-12-31T07:49:51.248Z,6.96
2018-12-31T07:50:58.310Z,6.74
2018-12-31T07:52:06.335Z,6.77
2018-12-31T07:53:12.553Z,6.85
2018-12-31T07:54:18.555Z,6.85
2018-12-31T07:55:24.886Z,6.69
2018-12-31T07:56:31.476Z,6.64
2018-12-31T07:57:38.605Z,6.65
2018-12-31T07:58:44.500Z,6.71
2018-12-31T07:59:50.439Z,6.61
2018-12-31T08:00:56.369Z,6.76
2018-12-31T08:02:02.288Z,6.80
2018-12-31T08:03:08.250Z,6.75
2018-12-31T08:04:14.176Z,6.78
2018-12-31T08:05:20.079Z,6.72
2018-12-31T08:06:25.986Z,6.70
2018-12-31T08:07:31.935Z,6.63
2018-12-31T08:08:37.840Z,6.70
2018-12-31T08:09:43.723Z,6.63
2018-12-31T08:10:49.652Z,6.76
2018-12-31T08:11:55.545Z,6.70
2018-12-31T08:13:01.469Z,6.81
2018-12-31T08:14:07.382Z,6.89
2018-12-31T08:15:13.292Z,6.83
2018-12-31T08:16:19.210Z,6.81
2018-12-31T08:17:25.115Z,6.94
2018-12-31T08:18:30.675Z,7.11
2018-12-31T08:19:36.569Z,6.87
2018-12-31T08:20:42.559Z,6.61
2018-12-31T08:21:48.453Z,6.59
2018-12-31T08:22:54.432Z,6.59
2018-12-31T08:24:00.337Z,6.56
2018-12-31T08:25:05.526Z,6.52
2018-12-31T08:26:11.466Z,6.57
2018-12-31T08:27:17.392Z,6.69
2018-12-31T08:28:24.182Z,6.75
2018-12-31T08:29:30.152Z,6.88
2018-12-31T08:30:36.063Z,6.92
2018-12-31T08:31:41.990Z,6.89
2018-12-31T08:32:47.953Z,6.92
2018-12-31T08:33:53.893Z,6.83
2018-12-31T08:34:59.777Z,7.09
2018-12-31T08:36:05.348Z,6.92
2018-12-31T08:37:11.266Z,6.79
2018-12-31T08:38:17.194Z,6.74
2018-12-31T08:39:23.409Z,6.76
2018-12-31T08:40:29.876Z,6.93
2018-12-31T08:41:37.288Z,6.94
2018-12-31T08:42:43.753Z,7.04
2018-12-31T08:43:49.683Z,6.85
2018-12-31T08:44:55.564Z,6.75
2018-12-31T08:46:01.462Z,6.60
2018-12-31T08:47:07.364Z,6.62
2018-12-31T08:48:13.338Z,6.79
2018-12-31T08:49:19.212Z,6.87
2018-12-31T08:50:25.145Z,7.01
2018-12-31T08:51:31.082Z,6.94
2018-12-31T08:52:37.009Z,6.81
2018-12-31T08:53:42.928Z,6.63
2018-12-31T08:54:48.843Z,6.77
2018-12-31T08:55:54.750Z,6.81
2018-12-31T08:57:00.330Z,6.69
2018-12-31T08:58:06.266Z,6.74
2018-12-31T08:59:12.235Z,6.83
2018-12-31T09:00:18.116Z,6.93
2018-12-31T09:01:24.043Z,7.14
2018-12-31T09:02:29.945Z,7.18
2018-12-31T09:03:35.505Z,7.12
2018-12-31T09:04:41.430Z,6.98
2018-12-31T09:05:47.376Z,6.86
2018-12-31T09:06:53.016Z,6.76
2018-12-31T09:07:58.927Z,6.74
2018-12-31T09:09:03.899Z,6.75
2018-12-31T09:10:09.192Z,6.95
2018-12-31T09:11:15.074Z,6.90
2018-12-31T09:12:21.012Z,6.91
2018-12-31T09:13:26.953Z,7.10
2018-12-31T09:14:32.825Z,7.18
2018-12-31T09:15:38.696Z,7.10
2018-12-31T09:16:44.574Z,6.90
2018-12-31T09:17:50.484Z,6.87
2018-12-31T09:18:56.393Z,6.84
2018-12-31T09:20:02.286Z,6.84
2018-12-31T09:21:08.198Z,6.82
2018-12-31T09:22:14.074Z,6.69
2018-12-31T09:23:20.066Z,7.05
2018-12-31T09:24:26.000Z,6.95
2018-12-31T09:25:31.917Z,6.88
2018-12-31T09:26:37.811Z,6.78
2018-12-31T09:27:43.738Z,6.88
2018-12-31T09:28:49.631Z,6.84
2018-12-31T09:29:55.573Z,6.96
2018-12-31T09:31:01.528Z,6.83
2018-12-31T09:32:07.413Z,6.83
2018-12-31T09:33:13.354Z,6.97
2018-12-31T09:34:19.217Z,6.94
2018-12-31T09:35:25.080Z,6.84
2018-12-31T09:36:30.973Z,7.22
2018-12-31T09:37:36.874Z,7.03
2018-12-31T09:38:42.822Z,6.96
2018-12-31T09:39:48.762Z,6.91
2018-12-31T09:40:54.649Z,6.90
2018-12-31T09:42:00.522Z,6.96
2018-12-31T09:43:06.469Z,6.96
2018-12-31T09:44:12.349Z,6.90
2018-12-31T09:45:17.876Z,6.86
2018-12-31T09:46:23.821Z,6.93
2018-12-31T09:47:29.744Z,6.97
2018-12-31T09:48:35.649Z,7.02
2018-12-31T09:49:41.549Z,6.94
2018-12-31T09:50:48.149Z,7.17
2018-12-31T09:51:54.158Z,7.12
2018-12-31T09:53:00.058Z,7.18
2018-12-31T09:54:05.976Z,7.15
2018-12-31T09:55:11.881Z,7.15
2018-12-31T09:56:17.818Z,7.02
2018-12-31T09:57:23.694Z,6.98
2018-12-31T09:58:29.621Z,7.18
2018-12-31T09:59:35.591Z,7.23
2018-12-31T10:00:41.534Z,7.22
2018-12-31T10:01:47.433Z,7.08
2018-12-31T10:02:53.384Z,7.06
2018-12-31T10:03:59.306Z,7.06
2018-12-31T10:05:04.522Z,7.04
2018-12-31T10:06:11.173Z,7.25
2018-12-31T10:07:17.663Z,7.15
2018-12-31T10:08:23.596Z,7.09
2018-12-31T10:09:30.011Z,7.07
2018-12-31T10:10:37.017Z,7.20
2018-12-31T10:11:43.645Z,7.17
2018-12-31T10:12:50.325Z,7.03
2018-12-31T10:13:57.164Z,7.04
2018-12-31T10:15:04.079Z,7.08
2018-12-31T10:16:10.283Z,7.08
2018-12-31T10:17:17.042Z,7.05
2018-12-31T10:18:23.432Z,7.10
2018-12-31T10:19:29.625Z,7.41
2018-12-31T10:20:36.177Z,7.42
2018-12-31T10:21:42.443Z,7.43
2018-12-31T10:22:48.962Z,7.32
2018-12-31T10:23:55.260Z,7.29
2018-12-31T10:25:01.524Z,7.32
2018-12-31T10:26:08.114Z,7.50
2018-12-31T10:27:15.537Z,7.47
2018-12-31T10:28:21.961Z,7.62
2018-12-31T10:29:35.798Z,7.53
2018-12-31T10:30:34.478Z,7.54
2018-12-31T10:31:41.991Z,7.61
2018-12-31T10:32:48.547Z,7.71
2018-12-31T10:33:55.738Z,7.91
2018-12-31T10:35:02.263Z,7.88
2018-12-31T10:36:09.429Z,7.96
2018-12-31T10:37:15.839Z,8.05
2018-12-31T10:38:22.080Z,7.85
2018-12-31T10:39:29.011Z,7.87
2018-12-31T10:40:35.352Z,7.74
2018-12-31T10:41:41.873Z,7.63
2018-12-31T10:42:48.265Z,7.85
2018-12-31T10:43:54.650Z,7.82
2018-12-31T10:45:01.003Z,7.95
2018-12-31T10:46:07.327Z,7.74
2018-12-31T10:47:13.710Z,7.83
2018-12-31T10:48:19.760Z,7.85
2018-12-31T10:49:26.353Z,7.69
2018-12-31T10:50:32.769Z,7.74
2018-12-31T10:51:40.104Z,7.99
2018-12-31T10:52:47.537Z,7.78
2018-12-31T10:53:55.257Z,7.77
2018-12-31T10:55:03.589Z,7.80
2018-12-31T10:56:10.401Z,7.74
2018-12-31T10:57:17.952Z,7.87
2018-12-31T10:58:23.453Z,8.05
2018-12-31T10:59:30.932Z,8.13
2018-12-31T11:00:37.484Z,8.22
2018-12-31T11:01:44.036Z,7.98
2018-12-31T11:02:50.001Z,8.07
2018-12-31T11:03:56.534Z,8.23
2018-12-31T11:05:04.267Z,8.15
2018-12-31T11:06:11.669Z,8.15
2018-12-31T11:07:18.515Z,8.20
2018-12-31T11:08:26.071Z,8.01
2018-12-31T11:09:33.079Z,8.08
2018-12-31T11:10:40.251Z,8.06
2018-12-31T11:11:46.654Z,8.05
2018-12-31T11:12:52.568Z,8.04
2018-12-31T11:13:59.138Z,8.08
2018-12-31T11:15:05.851Z,8.20
2018-12-31T11:16:12.172Z,8.10
2018-12-31T11:17:19.458Z,8.11
2018-12-31T11:18:25.947Z,8.04
2018-12-31T11:19:33.519Z,8.18
2018-12-31T11:20:38.975Z,7.98
2018-12-31T11:23:35.063Z,8.12
2018-12-31T11:24:54.601Z,8.08
2018-12-31T11:27:57.367Z,7.96
2018-12-31T11:29:24.711Z,7.99
2018-12-31T11:30:31.349Z,8.30
2018-12-31T11:31:37.227Z,8.30
2018-12-31T11:32:43.165Z,8.24
2018-12-31T11:33:49.106Z,8.22
2018-12-31T11:34:55.047Z,8.40
2018-12-31T11:36:00.931Z,8.48
2018-12-31T11:37:07.348Z,8.27
2018-12-31T11:38:13.255Z,7.99
2018-12-31T11:39:19.692Z,7.91
2018-12-31T11:40:25.675Z,8.04
2018-12-31T11:41:31.599Z,8.03
2018-12-31T11:42:37.516Z,8.18
2018-12-31T11:43:43.444Z,8.18
2018-12-31T11:44:49.376Z,8.11
2018-12-31T11:45:55.229Z,8.15
2018-12-31T11:47:01.123Z,8.31
2018-12-31T11:48:08.481Z,8.27
2018-12-31T11:49:16.223Z,8.38
2018-12-31T11:50:23.441Z,8.28
2018-12-31T11:51:29.949Z,8.25
2018-12-31T11:52:35.872Z,8.28
2018-12-31T11:53:41.750Z,8.38
2018-12-31T11:54:48.293Z,8.42
2018-12-31T11:55:55.054Z,8.16
2018-12-31T11:57:05.943Z,8.30
2018-12-31T11:58:15.764Z,8.21
2018-12-31T11:59:22.840Z,8.33
2018-12-31T12:00:30.544Z,8.43
2018-12-31T12:01:38.848Z,8.22
2018-12-31T12:02:46.544Z,8.15
2018-12-31T12:03:53.916Z,8.24
2018-12-31T12:05:00.448Z,8.19
2018-12-31T12:06:07.622Z,8.13
2018-12-31T12:07:14.338Z,8.13
2018-12-31T12:08:21.353Z,8.20
2018-12-31T12:09:29.871Z,8.18
2018-12-31T12:10:38.129Z,8.08
2018-12-31T12:11:44.424Z,8.04
2018-12-31T12:12:51.331Z,8.19
2018-12-31T12:13:59.775Z,8.27
2018-12-31T12:15:06.237Z,8.07
2018-12-31T12:16:13.191Z,8.11
2018-12-31T12:17:21.097Z,8.03
2018-12-31T12:18:27.737Z,8.06
2018-12-31T12:19:35.678Z,8.09
2018-12-31T12:20:43.142Z,8.13
2018-12-31T12:21:49.977Z,8.42
2018-12-31T12:22:56.692Z,8.54
2018-12-31T12:24:03.245Z,8.45
2018-12-31T12:25:10.423Z,8.56
2018-12-31T12:26:17.217Z,8.55
2018-12-31T12:27:23.386Z,8.47
2018-12-31T12:28:29.527Z,8.35
2018-12-31T12:29:35.528Z,8.35
2018-12-31T12:30:41.499Z,8.34
2018-12-31T12:31:47.147Z,8.26
2018-12-31T12:32:54.136Z,8.15
2018-12-31T12:33:59.874Z,8.13
2018-12-31T12:35:05.166Z,8.12
2018-12-31T12:36:11.072Z,8.36
2018-12-31T12:37:17.000Z,8.51
2018-12-31T12:38:23.065Z,8.58
2018-12-31T12:39:29.100Z,8.55
2018-12-31T12:40:35.092Z,8.57
2018-12-31T12:41:40.994Z,8.52
2018-12-31T12:42:46.897Z,8.40
2018-12-31T12:43:52.954Z,8.38
2018-12-31T12:44:58.919Z,8.36
2018-12-31T12:46:04.912Z,8.30
2018-12-31T12:47:10.914Z,8.22
2018-12-31T12:48:16.932Z,8.34
2018-12-31T12:49:22.827Z,8.33
2018-12-31T12:50:28.807Z,8.31
2018-12-31T12:51:34.830Z,8.41
2018-12-31T12:52:40.753Z,8.27
2018-12-31T12:53:46.666Z,8.18
2018-12-31T12:54:52.541Z,8.14
2018-12-31T12:55:58.486Z,8.10
2018-12-31T12:57:04.373Z,8.01
2018-12-31T12:58:10.308Z,8.07
2018-12-31T12:59:16.213Z,8.05
2018-12-31T13:00:22.109Z,8.09
2018-12-31T13:01:28.816Z,8.11
2018-12-31T13:02:34.775Z,8.06
2018-12-31T13:03:40.740Z,8.14
2018-12-31T13:04:46.661Z,8.08
2018-12-31T13:05:53.229Z,8.03
2018-12-31T13:06:59.150Z,7.93
2018-12-31T13:08:06.253Z,8.00
2018-12-31T13:09:12.620Z,8.05
2018-12-31T13:10:18.529Z,8.17
2018-12-31T13:11:24.458Z,8.21
2018-12-31T13:12:30.566Z,8.32
2018-12-31T13:13:36.464Z,8.36
2018-12-31T13:14:42.394Z,8.42
2018-12-31T13:15:48.978Z,8.21
2018-12-31T13:16:54.866Z,8.20
2018-12-31T13:18:00.790Z,8.07
2018-12-31T13:19:06.731Z,8.19
2018-12-31T13:20:12.613Z,8.35
2018-12-31T13:21:18.624Z,8.15
2018-12-31T13:22:24.756Z,8.18
2018-12-31T13:23:30.697Z,8.15
2018-12-31T13:24:36.675Z,8.13
2018-12-31T13:25:42.689Z,8.16
2018-12-31T13:26:48.632Z,8.11
2018-12-31T13:27:54.662Z,8.10
2018-12-31T13:29:00.811Z,8.18
2018-12-31T13:30:06.050Z,8.29
2018-12-31T13:31:12.108Z,8.28
2018-12-31T13:32:17.984Z,8.19
2018-12-31T13:33:23.988Z,8.12
2018-12-31T13:34:29.921Z,8.22
2018-12-31T13:35:35.903Z,8.21
2018-12-31T13:36:41.956Z,8.06
2018-12-31T13:37:47.936Z,8.03
2018-12-31T13:38:53.862Z,8.08
2018-12-31T13:39:59.795Z,8.08
2018-12-31T13:41:05.521Z,8.05
2018-12-31T13:42:11.485Z,8.00
2018-12-31T13:43:17.450Z,8.03
2018-12-31T13:44:23.411Z,7.94
2018-12-31T13:45:29.234Z,7.87
2018-12-31T13:46:35.239Z,7.87
2018-12-31T13:47:41.440Z,7.77
2018-12-31T13:48:47.471Z,7.83
2018-12-31T13:49:53.405Z,7.79
2018-12-31T13:51:00.112Z,7.74
2018-12-31T13:52:07.199Z,7.92
2018-12-31T13:53:13.184Z,8.00
2018-12-31T13:54:20.247Z,8.10
2018-12-31T13:55:28.482Z,7.90
2018-12-31T13:56:35.322Z,7.68
2018-12-31T13:57:42.254Z,7.68
2018-12-31T13:58:50.251Z,7.60
2018-12-31T13:59:57.139Z,7.86
2018-12-31T14:01:04.408Z,7.71
2018-12-31T14:02:11.091Z,7.72
2018-12-31T14:03:19.656Z,7.60
2018-12-31T14:04:25.210Z,7.49
2018-12-31T14:05:32.188Z,7.71
2018-12-31T14:06:39.282Z,7.81
2018-12-31T14:07:46.487Z,7.86
2018-12-31T14:08:54.208Z,7.74
2018-12-31T14:10:00.617Z,7.64
2018-12-31T14:11:10.173Z,7.57
2018-12-31T14:12:17.310Z,7.57
2018-12-31T14:13:24.274Z,7.74
2018-12-31T14:14:31.272Z,7.76
2018-12-31T14:15:37.401Z,7.80
2018-12-31T14:16:44.352Z,7.74
2018-12-31T14:17:51.487Z,7.83
2018-12-31T14:18:59.189Z,7.80
2018-12-31T14:20:05.234Z,7.89
2018-12-31T14:21:12.438Z,7.98
2018-12-31T14:22:18.676Z,7.87
2018-12-31T14:23:25.255Z,7.79
2018-12-31T14:24:33.043Z,7.68
2018-12-31T14:25:39.568Z,7.85
2018-12-31T14:26:46.099Z,7.70
2018-12-31T14:27:52.663Z,7.67
2018-12-31T14:29:00.848Z,7.72
2018-12-31T14:30:07.526Z,7.87
2018-12-31T14:31:14.771Z,7.81
2018-12-31T14:32:21.547Z,7.66
2018-12-31T14:33:27.954Z,7.59
2018-12-31T14:34:35.671Z,7.68
2018-12-31T14:35:45.854Z,7.59
2018-12-31T14:36:49.136Z,7.59
2018-12-31T14:37:55.709Z,7.64
2018-12-31T14:39:02.271Z,7.77
2018-12-31T14:40:07.976Z,7.82
2018-12-31T14:41:13.871Z,7.82
2018-12-31T14:42:19.863Z,7.80
2018-12-31T14:43:26.006Z,7.70
2018-12-31T14:44:31.919Z,7.58
2018-12-31T14:45:37.836Z,7.76
2018-12-31T14:46:43.775Z,7.77